Time;durP1;ratioP1;P1;durP2;ratioP2;P2;SDS_P1;SDS_P2;PMS_P1;PMS_P2;Temp;Humidity;BMP_temperature;BMP_pressure;BME280_temperature;BME280_humidity;BME280_pressure;Samples;Min_cycle;Max_cycle;Signal;HPM_P1;HPM_P2
2023/10/15 00:00:18;;;;;;;6.22;0.85;;;;;;;6.68;100.00;100766.34;4987818;28;20751;-50
2023/10/15 00:02:49;;;;;;;4.05;1.05;;;;;;;6.57;100.00;100765.72;4985857;28;20200;-50
2023/10/15 00:05:17;;;;;;;3.90;0.65;;;;;;;6.67;100.00;100761.06;4988847;28;20401;-50
2023/10/15 00:07:44;;;;;;;6.43;1.17;;;;;;;6.62;100.00;100760.31;4990568;28;20220;-50
2023/10/15 00:10:23;;;;;;;4.10;1.05;;;;;;;6.54;100.00;100756.03;4989988;28;20186;-50
2023/10/15 00:12:50;;;;;;;6.57;1.00;;;;;;;6.63;100.00;100762.06;4987081;28;20185;-50
2023/10/15 00:15:20;;;;;;;3.05;0.70;;;;;;;6.53;100.00;100758.72;4990023;28;20209;-50
2023/10/15 00:17:47;;;;;;;1.90;0.80;;;;;;;6.53;100.00;100770.25;4985477;28;20993;-49
2023/10/15 00:20:19;;;;;;;9.02;1.42;;;;;;;6.46;100.00;100768.63;4987483;28;20302;-52
2023/10/15 00:22:50;;;;;;;5.78;1.02;;;;;;;6.51;100.00;100766.72;4987087;28;20189;-50
2023/10/15 00:25:19;;;;;;;4.70;1.00;;;;;;;6.47;100.00;100765.09;4988639;28;20229;-50
2023/10/15 00:27:57;;;;;;;2.40;0.70;;;;;;;6.43;100.00;100768.72;4986469;28;20201;-50
2023/10/15 00:30:31;;;;;;;1.95;0.80;;;;;;;6.43;100.00;100791.75;4985448;28;20189;-50
2023/10/15 00:32:57;;;;;;;6.88;0.95;;;;;;;6.55;100.00;100800.38;4990322;28;20184;-51
2023/10/15 00:35:25;;;;;;;3.95;1.17;;;;;;;6.44;100.00;100826.34;4974001;28;20209;-50
2023/10/15 00:37:56;;;;;;;4.10;0.93;;;;;;;6.53;100.00;100831.47;4984237;28;20212;-50
2023/10/15 00:40:24;;;;;;;4.63;0.95;;;;;;;6.58;100.00;100848.22;4985292;28;20204;-51
2023/10/15 00:42:50;;;;;;;5.20;1.30;;;;;;;6.45;100.00;100840.50;4986162;28;20225;-50
2023/10/15 00:45:19;;;;;;;8.55;1.33;;;;;;;6.40;100.00;100843.28;4974012;28;20692;-50
2023/10/15 00:48:11;;;;;;;8.40;1.33;;;;;;;6.45;100.00;100844.06;4984876;28;20575;-50
2023/10/15 00:50:41;;;;;;;5.32;1.00;;;;;;;6.37;100.00;100819.41;4967089;28;20228;-51
2023/10/15 00:53:21;;;;;;;9.75;1.20;;;;;;;6.43;100.00;100826.38;4985902;28;20754;-51
2023/10/15 00:55:49;;;;;;;5.20;0.90;;;;;;;6.42;100.00;100820.16;4988416;28;20189;-49
2023/10/15 00:58:21;;;;;;;3.97;1.10;;;;;;;6.36;100.00;100820.28;4972375;28;20540;-49
2023/10/15 01:03:19;;;;;;;4.25;0.88;;;;;;;6.24;100.00;100832.09;4983321;28;20224;-50
2023/10/15 01:05:53;;;;;;;7.50;1.40;;;;;;;6.16;100.00;100826.91;4984999;28;20193;-49
2023/10/15 01:08:25;;;;;;;9.98;1.20;;;;;;;6.15;100.00;100829.63;4977123;28;20185;-49
2023/10/15 01:11:18;;;;;;;4.93;1.23;;;;;;;6.12;100.00;100835.88;4982832;28;20196;-49
2023/10/15 01:13:44;;;;;;;7.93;1.08;;;;;;;5.96;100.00;100831.75;4968720;28;20212;-49
2023/10/15 01:16:15;;;;;;;5.78;0.95;;;;;;;5.94;100.00;100830.88;4975133;28;20500;-49
2023/10/15 01:18:41;;;;;;;6.45;1.20;;;;;;;5.94;100.00;100841.50;4984078;28;20629;-49
2023/10/15 01:21:09;;;;;;;3.13;1.20;;;;;;;5.93;100.00;100830.00;4969087;28;20276;-52
2023/10/15 01:26:09;;;;;;;4.05;0.80;;;;;;;5.91;100.00;100833.59;4984564;28;20181;-49
2023/10/15 01:28:38;;;;;;;6.55;1.15;;;;;;;5.94;100.00;100829.09;4986525;28;20268;-50
2023/10/15 01:31:06;;;;;;;1.65;1.00;;;;;;;5.98;100.00;100829.94;4984631;28;20193;-50
2023/10/15 01:33:49;;;;;;;4.65;1.00;;;;;;;5.94;100.00;100844.16;4964575;28;20209;-49
2023/10/15 01:36:21;;;;;;;6.07;1.27;;;;;;;5.90;100.00;100847.78;4974590;28;20259;-49
2023/10/15 01:38:54;;;;;;;9.95;1.08;;;;;;;5.90;100.00;100854.00;4981991;28;20718;-50
2023/10/15 01:41:22;;;;;;;2.55;1.10;;;;;;;5.92;100.00;100852.16;4985395;28;20671;-49
2023/10/15 01:43:50;;;;;;;8.73;1.42;;;;;;;5.94;100.00;100850.38;4965388;28;20202;-50
2023/10/15 01:49:06;;;;;;;6.18;1.40;;;;;;;6.04;100.00;100845.78;4984911;28;20192;-50
2023/10/15 01:51:39;;;;;;;5.07;1.33;;;;;;;6.07;100.00;100829.75;4983644;28;20304;-50
2023/10/15 01:54:09;;;;;;;9.27;1.40;;;;;;;6.12;100.00;100832.31;4981484;28;20206;-50
2023/10/15 01:56:44;;;;;;;7.70;1.42;;;;;;;6.13;100.00;100834.97;4973564;28;20204;-49
2023/10/15 01:59:11;;;;;;;5.03;1.10;;;;;;;6.07;100.00;100835.06;4978016;28;20198;-49
2023/10/15 02:01:40;;;;;;;7.95;1.42;;;;;;;6.12;100.00;100827.91;4980856;28;20323;-52
2023/10/15 02:04:16;;;;;;;7.93;1.20;;;;;;;6.11;100.00;100836.75;4984329;28;20564;-50
2023/10/15 02:06:44;;;;;;;3.95;1.23;;;;;;;6.12;100.00;100829.66;4982788;28;20184;-50
2023/10/15 02:09:21;;;;;;;8.32;1.40;;;;;;;6.15;100.00;100829.63;4979047;28;20189;-50
2023/10/15 02:11:54;;;;;;;13.27;1.83;;;;;;;6.12;100.00;100814.59;4970597;28;20173;-50
2023/10/15 02:14:27;;;;;;;11.75;1.25;;;;;;;6.09;100.00;100817.28;4976617;28;20296;-50
2023/10/15 02:16:53;;;;;;;6.53;1.50;;;;;;;6.11;100.00;100807.50;4968742;28;20559;-49
2023/10/15 02:19:34;;;;;;;12.77;1.77;;;;;;;6.12;100.00;100811.03;4983704;28;20196;-50
2023/10/15 02:22:07;;;;;;;9.63;1.80;;;;;;;6.10;100.00;100813.75;4984936;28;20183;-50
2023/10/15 02:24:34;;;;;;;8.35;1.90;;;;;;;6.07;100.00;100808.47;4981902;28;20433;-50
2023/10/15 02:27:06;;;;;;;15.82;1.92;;;;;;;6.11;100.00;100802.19;4980356;28;20184;-49
2023/10/15 02:32:06;;;;;;;12.05;1.75;;;;;;;6.11;100.00;100819.94;4983149;28;20194;-50
2023/10/15 02:34:32;;;;;;;6.78;1.88;;;;;;;6.05;100.00;100814.72;4967756;28;20209;-50
2023/10/15 02:37:03;;;;;;;6.40;1.42;;;;;;;6.01;100.00;100808.59;4968271;28;20192;-51
2023/10/15 02:39:35;;;;;;;14.90;1.92;;;;;;;6.02;100.00;100805.03;4981747;28;20231;-49
2023/10/15 02:42:05;;;;;;;11.77;1.65;;;;;;;6.09;100.00;100811.97;4980998;28;20189;-49
2023/10/15 02:44:32;;;;;;;9.35;1.88;;;;;;;6.07;100.00;100813.78;4972854;28;20201;-50
2023/10/15 02:52:19;;;;;;;7.60;2.25;;;;;;;6.15;100.00;100825.16;4982887;28;20193;-48
2023/10/15 02:54:47;;;;;;;9.85;1.75;;;;;;;6.15;100.00;100825.16;4983089;28;20281;-48
2023/10/15 02:57:16;;;;;;;7.88;1.58;;;;;;;6.17;100.00;100828.66;4967864;28;20225;-49
2023/10/15 02:59:52;;;;;;;5.22;1.45;;;;;;;6.22;100.00;100814.41;4982070;28;20193;-49
2023/10/15 03:02:20;;;;;;;6.38;1.50;;;;;;;6.25;100.00;100823.19;4976807;28;20184;-50
2023/10/15 03:04:51;;;;;;;5.90;1.45;;;;;;;6.37;100.00;100817.63;4980081;28;20304;-49
2023/10/15 03:07:19;;;;;;;11.95;1.83;;;;;;;6.36;100.00;100821.19;4981786;28;20784;-49
2023/10/15 03:09:49;;;;;;;14.38;1.80;;;;;;;6.34;100.00;100830.09;4961213;28;20209;-49
2023/10/15 03:12:18;;;;;;;9.68;1.80;;;;;;;6.34;100.00;100822.09;4980843;28;20173;-50
2023/10/15 03:14:45;;;;;;;10.68;1.67;;;;;;;6.35;100.00;100826.53;4963823;28;20292;-49
2023/10/15 03:17:24;;;;;;;9.38;1.30;;;;;;;6.41;100.00;100813.13;4981167;28;20186;-49
2023/10/15 03:19:54;;;;;;;3.08;1.38;;;;;;;6.37;100.00;100822.94;4984707;28;20211;-50
2023/10/15 03:22:24;;;;;;;7.03;1.33;;;;;;;6.35;100.00;100816.75;4980310;28;20579;-50
2023/10/15 03:24:56;;;;;;;6.20;1.02;;;;;;;6.35;100.00;100814.09;4978646;28;20661;-49
2023/10/15 03:27:27;;;;;;;4.68;1.48;;;;;;;6.25;100.00;100817.00;4981290;28;20194;-48
2023/10/15 03:29:56;;;;;;;5.95;1.20;;;;;;;6.22;100.00;100817.06;4986739;28;20216;-48
2023/10/15 03:32:31;;;;;;;7.05;1.20;;;;;;;6.23;100.00;100816.13;4985612;28;20193;-50
2023/10/15 03:35:17;;;;;;;9.40;1.58;;;;;;;6.17;100.00;100802.06;4976646;28;20193;-49
2023/10/15 03:37:46;;;;;;;7.97;1.38;;;;;;;6.17;100.00;100814.50;4985978;28;20292;-47
2023/10/15 03:40:29;;;;;;;6.43;1.33;;;;;;;6.16;100.00;100818.91;4984895;28;20190;-49
2023/10/15 03:43:01;;;;;;;8.30;1.35;;;;;;;6.18;100.00;100824.22;4984904;28;20787;-49
2023/10/15 03:45:27;;;;;;;9.13;0.90;;;;;;;6.07;100.00;100813.78;4986726;28;20208;-51
2023/10/15 03:47:54;;;;;;;7.07;1.70;;;;;;;6.12;100.00;100821.69;4993432;28;20177;-48
2023/10/15 03:50:20;;;;;;;5.88;1.23;;;;;;;6.14;100.00;100823.44;4995241;28;20276;-50
2023/10/15 03:52:45;;;;;;;4.43;1.27;;;;;;;6.12;100.00;100821.69;4984895;28;20565;-48
2023/10/15 03:55:11;;;;;;;6.97;0.95;;;;;;;6.08;100.00;100825.31;4989042;28;20193;-49
2023/10/15 03:57:37;;;;;;;5.05;0.95;;;;;;;6.04;100.00;100834.28;4985689;28;20237;-50
2023/10/15 04:00:15;;;;;;;4.53;1.15;;;;;;;6.04;100.00;100821.84;4986437;28;20202;-49
2023/10/15 04:03:07;;;;;;;4.60;1.33;;;;;;;6.02;100.00;100821.00;4987388;28;20596;-49
2023/10/15 04:05:33;;;;;;;4.22;1.35;;;;;;;5.96;100.00;100821.09;4981750;28;20186;-49
2023/10/15 04:07:59;;;;;;;11.65;1.48;;;;;;;5.92;100.00;100828.22;4986773;28;20170;-49
2023/10/15 04:10:28;;;;;;;5.45;1.08;;;;;;;5.95;100.00;100822.03;4973939;28;20198;-51
2023/10/15 04:12:53;;;;;;;5.50;1.10;;;;;;;5.94;100.00;100817.56;4987575;28;20178;-50
2023/10/15 04:15:21;;;;;;;6.32;1.20;;;;;;;5.92;100.00;100819.38;4989909;28;20193;-48
2023/10/15 04:17:48;;;;;;;4.13;1.00;;;;;;;5.92;100.00;100830.00;4985272;28;20563;-52
2023/10/15 04:20:34;;;;;;;9.40;1.83;;;;;;;5.83;100.00;100827.53;4985500;28;20208;-49
2023/10/15 04:23:00;;;;;;;4.07;1.13;;;;;;;5.89;100.00;100835.41;4985626;28;20193;-50
2023/10/15 04:25:32;;;;;;;10.02;1.73;;;;;;;5.95;100.00;100833.53;4975868;28;20227;-48
2023/10/15 04:28:08;;;;;;;8.00;1.38;;;;;;;5.91;100.00;100839.78;4986693;28;20170;-48
2023/10/15 04:30:38;;;;;;;8.25;1.45;;;;;;;5.89;100.00;100832.75;4982071;28;20194;-49
2023/10/15 04:33:10;;;;;;;5.72;1.13;;;;;;;5.91;100.00;100829.16;4988343;28;20295;-51
2023/10/15 04:35:37;;;;;;;5.63;1.27;;;;;;;5.85;100.00;100837.22;4983859;28;20788;-48
2023/10/15 04:38:07;;;;;;;6.47;1.30;;;;;;;5.85;100.00;100831.91;4986515;28;20680;-51
2023/10/15 04:40:47;;;;;;;7.43;1.55;;;;;;;5.84;100.00;100824.84;4985166;28;20190;-49
2023/10/15 04:43:13;;;;;;;3.15;1.05;;;;;;;5.88;100.00;100833.63;4983380;28;20239;-49
2023/10/15 04:45:44;;;;;;;3.80;1.55;;;;;;;5.89;100.00;100824.78;4986919;28;20189;-49
2023/10/15 04:48:14;;;;;;;7.10;1.38;;;;;;;5.84;100.00;100824.84;4991708;28;20173;-46
2023/10/15 04:50:43;;;;;;;10.30;2.60;;;;;;;5.85;100.00;100826.59;4988307;28;20193;-46
2023/10/15 04:53:12;;;;;;;7.05;1.20;;;;;;;5.82;100.00;100828.47;4994544;23;20237;-51
2023/10/15 04:55:46;;;;;;;6.30;1.40;;;;;;;5.84;100.00;100832.84;4989362;28;20532;-51
2023/10/15 04:58:12;;;;;;;7.95;1.58;;;;;;;5.86;100.00;100843.41;4985529;28;20209;-51
2023/10/15 05:00:43;;;;;;;10.45;1.98;;;;;;;5.85;100.00;100828.38;4988331;28;20263;-52
2023/10/15 05:03:09;;;;;;;5.10;1.25;;;;;;;5.86;100.00;100838.09;4982807;28;20193;-52
2023/10/15 05:05:35;;;;;;;6.00;1.38;;;;;;;5.86;100.00;100841.66;4989207;28;20180;-52
2023/10/15 05:08:01;;;;;;;8.77;1.75;;;;;;;5.86;100.00;100844.31;4987728;28;20190;-50
2023/10/15 05:10:33;;;;;;;8.32;1.80;;;;;;;5.86;100.00;100854.06;4985332;28;20609;-51
2023/10/15 05:12:59;;;;;;;4.72;1.27;;;;;;;5.86;100.00;100836.34;4984083;28;20271;-51
2023/10/15 05:15:28;;;;;;;3.60;1.27;;;;;;;5.86;100.00;100848.72;4984599;28;20544;-52
2023/10/15 05:17:53;;;;;;;9.38;1.50;;;;;;;5.82;100.00;100844.41;4980334;28;20198;-51
2023/10/15 05:20:20;;;;;;;8.27;1.42;;;;;;;5.85;100.00;100854.97;4986486;28;20264;-49
2023/10/15 05:22:47;;;;;;;3.97;1.08;;;;;;;5.83;100.00;100856.78;4966055;28;20587;-52
2023/10/15 05:25:17;;;;;;;5.95;1.20;;;;;;;5.74;100.00;100857.81;4981857;28;20228;-52
2023/10/15 05:27:47;;;;;;;5.25;1.08;;;;;;;5.77;100.00;100848.03;4979504;28;20196;-51
2023/10/15 05:30:15;;;;;;;6.78;1.17;;;;;;;5.72;100.00;100856.97;4987271;28;20193;-53
2023/10/15 05:32:43;;;;;;;6.40;1.80;;;;;;;5.69;100.00;100855.25;4983437;28;20546;-53
2023/10/15 05:35:09;;;;;;;7.65;1.27;;;;;;;5.65;100.00;100864.19;4984579;28;20532;-51
2023/10/15 05:37:41;;;;;;;7.72;1.30;;;;;;;5.61;100.00;100862.47;4982151;28;20202;-54
2023/10/15 05:40:08;;;;;;;5.80;1.45;;;;;;;5.63;100.00;100870.44;4986095;28;20174;-51
2023/10/15 05:42:35;;;;;;;8.02;1.65;;;;;;;5.67;100.00;100865.03;4984300;28;20199;-51
2023/10/15 05:45:01;;;;;;;5.93;1.05;;;;;;;5.65;100.00;100871.28;4983650;28;20201;-52
2023/10/15 05:47:28;;;;;;;5.45;0.90;;;;;;;5.64;100.00;100864.19;4982948;28;20209;-50
2023/10/15 05:49:54;;;;;;;10.20;1.40;;;;;;;5.62;100.00;100866.00;4984338;28;20192;-52
2023/10/15 05:52:20;;;;;;;12.60;1.77;;;;;;;5.64;100.00;100874.81;4985040;28;20353;-50
2023/10/15 05:54:47;;;;;;;8.23;1.45;;;;;;;5.62;100.00;100873.97;4984402;28;20217;-51
2023/10/15 05:57:13;;;;;;;7.50;1.63;;;;;;;5.67;100.00;100882.78;4982794;28;20236;-50
2023/10/15 05:59:39;;;;;;;3.60;1.55;;;;;;;5.63;100.00;100878.41;4983917;28;20190;-52
2023/10/15 06:02:04;;;;;;;4.40;1.40;;;;;;;5.70;100.00;100872.06;4986803;28;20186;-51
2023/10/15 06:04:30;;;;;;;12.77;1.92;;;;;;;5.67;100.00;100880.13;4982439;28;20551;-51
2023/10/15 06:06:57;;;;;;;6.75;1.25;;;;;;;5.67;100.00;100888.09;4981411;28;20566;-51
2023/10/15 06:09:23;;;;;;;8.57;1.10;;;;;;;5.69;100.00;100875.66;4978745;28;20240;-50
2023/10/15 06:11:50;;;;;;;3.42;1.17;;;;;;;5.67;100.00;100878.31;4984431;28;20208;-51
2023/10/15 06:14:15;;;;;;;8.10;1.35;;;;;;;5.69;100.00;100888.94;4985185;28;21991;-52
2023/10/15 06:16:41;;;;;;;6.35;1.42;;;;;;;5.71;100.00;100897.75;4983719;28;20173;-51
2023/10/15 06:19:09;;;;;;;6.47;1.58;;;;;;;5.74;100.00;100892.38;4981587;28;20208;-51
2023/10/15 06:21:35;;;;;;;11.35;1.77;;;;;;;5.72;100.00;100904.81;4979768;28;20190;-52
2023/10/15 06:24:01;;;;;;;7.22;1.15;;;;;;;5.75;100.00;100908.31;4980647;28;20209;-52
2023/10/15 06:26:28;;;;;;;4.38;1.30;;;;;;;5.73;100.00;100907.47;4983244;28;20204;-51
2023/10/15 06:28:53;;;;;;;5.78;1.13;;;;;;;5.78;100.00;100908.25;4981088;28;20331;-51
2023/10/15 06:31:19;;;;;;;4.78;0.88;;;;;;;5.85;100.00;100910.81;4979980;28;20215;-52
2023/10/15 06:33:44;;;;;;;7.95;1.50;;;;;;;5.96;100.00;100917.72;4987177;28;20221;-52
2023/10/15 06:36:10;;;;;;;8.80;1.80;;;;;;;6.06;100.00;100913.13;4986754;28;20212;-51
2023/10/15 06:38:35;;;;;;;11.13;1.48;;;;;;;6.15;100.00;100925.38;4980860;28;20299;-51
2023/10/15 06:41:01;;;;;;;12.57;1.85;;;;;;;6.09;100.00;100934.34;4980897;28;20185;-53
2023/10/15 06:43:27;;;;;;;3.85;1.35;;;;;;;6.13;100.00;100933.38;4978353;28;20201;-52
2023/10/15 06:45:53;;;;;;;8.32;1.15;;;;;;;6.06;100.00;100933.53;4983175;28;20173;-53
2023/10/15 06:48:22;;;;;;;4.95;1.10;;;;;;;6.27;100.00;100933.09;4980861;28;20215;-52
2023/10/15 06:50:53;;;;;;;7.22;1.67;;;;;;;6.40;100.00;100931.97;4977489;28;20321;-50
2023/10/15 06:53:18;;;;;;;8.30;1.45;;;;;;;6.57;100.00;100931.66;4979482;28;20276;-53
2023/10/15 06:55:45;;;;;;;7.63;1.88;;;;;;;6.83;100.00;100943.56;4982396;28;20550;-54
2023/10/15 06:58:12;;;;;;;11.15;1.55;;;;;;;6.92;100.00;100948.69;4969771;28;20201;-52
2023/10/15 07:00:38;;;;;;;10.85;1.67;;;;;;;6.92;100.00;100940.69;4982095;28;20367;-54
2023/10/15 07:03:04;;;;;;;8.52;2.47;;;;;;;7.02;100.00;100938.72;4980234;28;20204;-52
2023/10/15 07:05:29;;;;;;;9.35;1.55;;;;;;;6.98;100.00;100945.03;4966660;28;20224;-51
2023/10/15 07:07:58;;;;;;;2.85;1.20;;;;;;;7.19;100.00;100956.97;4981708;28;20601;-52
2023/10/15 07:10:24;;;;;;;7.00;1.48;;;;;;;7.31;100.00;100940.72;4985681;28;20243;-49
2023/10/15 07:12:50;;;;;;;9.60;1.75;;;;;;;6.91;100.00;100949.59;4979958;28;20242;-48
2023/10/15 07:15:17;;;;;;;8.45;1.30;;;;;;;7.12;100.00;100966.88;4979969;28;20300;-47
2023/10/15 07:17:44;;;;;;;5.63;1.40;;;;;;;7.09;100.00;100947.47;4985711;28;20209;-48
2023/10/15 07:20:32;;;;;;;10.15;1.83;;;;;;;7.16;100.00;100957.94;4973998;28;20312;-49
2023/10/15 07:22:59;;;;;;;7.72;1.50;;;;;;;7.21;100.00;100957.81;4988275;28;20197;-49
2023/10/15 07:25:26;;;;;;;11.43;1.85;;;;;;;7.15;100.00;100958.84;4990903;28;20570;-49
2023/10/15 07:27:56;;;;;;;10.57;1.58;;;;;;;7.34;100.00;100961.97;4990867;28;20235;-48
2023/10/15 07:30:22;;;;;;;7.25;1.27;;;;;;;7.42;100.00;100957.34;4991246;28;20196;-48
2023/10/15 07:32:53;;;;;;;6.25;1.52;;;;;;;7.51;100.00;100968.72;4991245;28;20697;-48
2023/10/15 07:35:19;;;;;;;6.53;1.77;;;;;;;7.67;100.00;100978.09;4990986;28;20205;-48
2023/10/15 07:37:46;;;;;;;7.88;1.75;;;;;;;7.68;100.00;100970.97;4983203;28;20197;-47
2023/10/15 07:40:16;;;;;;;8.68;1.70;;;;;;;7.60;100.00;100973.81;4991088;28;20608;-48
2023/10/15 07:42:50;;;;;;;5.53;1.60;;;;;;;7.63;100.00;100965.72;4984747;28;20253;-49
2023/10/15 07:45:18;;;;;;;10.63;1.65;;;;;;;7.74;100.00;100966.38;4991191;28;20220;-48
2023/10/15 07:47:45;;;;;;;9.30;1.40;;;;;;;7.73;100.00;100963.75;4991096;28;20196;-47
2023/10/15 07:50:18;;;;;;;13.10;1.70;;;;;;;7.91;100.00;100959.72;4986871;28;20201;-49
2023/10/15 07:52:45;;;;;;;10.30;1.73;;;;;;;7.89;100.00;100964.22;4987194;28;20231;-47
2023/10/15 07:55:11;;;;;;;6.10;1.67;;;;;;;7.90;100.00;100971.34;4982893;28;20284;-48
2023/10/15 07:57:37;;;;;;;6.53;2.15;;;;;;;7.95;100.00;100974.75;4986389;28;20608;-49
2023/10/15 08:00:09;;;;;;;6.78;1.60;;;;;;;8.17;100.00;100981.28;4987589;28;20243;-48
2023/10/15 08:02:37;;;;;;;17.05;2.08;;;;;;;8.37;100.00;100974.53;4990922;28;20666;-49
2023/10/15 08:05:04;;;;;;;14.23;2.17;;;;;;;8.43;100.00;100974.41;4990447;28;20202;-48
2023/10/15 08:07:29;;;;;;;12.30;1.90;;;;;;;8.73;100.00;100990.53;4982993;28;20180;-46
2023/10/15 08:09:55;;;;;;;10.20;1.65;;;;;;;8.92;99.43;100972.16;4987236;28;20660;-47
2023/10/15 08:12:20;;;;;;;10.07;2.28;;;;;;;9.09;98.33;100972.53;4986768;28;20568;-47
2023/10/15 08:14:47;;;;;;;10.75;2.05;;;;;;;8.98;97.18;100972.00;4990332;28;20248;-47
2023/10/15 08:17:15;;;;;;;7.05;1.60;;;;;;;9.19;95.97;100975.84;4992621;28;20600;-47
2023/10/15 08:19:41;;;;;;;11.48;1.80;;;;;;;9.17;94.72;100966.97;4994046;28;20245;-47
2023/10/15 08:22:07;;;;;;;6.78;2.08;;;;;;;9.38;93.55;100963.66;4992868;28;20197;-49
2023/10/15 08:24:33;;;;;;;12.07;2.35;;;;;;;9.55;91.73;100960.44;4988536;28;20205;-48
2023/10/15 08:26:58;;;;;;;14.68;2.08;;;;;;;9.77;90.70;100951.72;4994273;28;20200;-48
2023/10/15 08:29:24;;;;;;;12.65;2.17;;;;;;;9.45;89.80;100965.22;4993989;28;20181;-46
2023/10/15 08:31:50;;;;;;;16.08;2.28;;;;;;;9.35;89.62;100965.53;4986649;28;20190;-47
2023/10/15 08:34:16;;;;;;;10.38;1.73;;;;;;;9.30;89.16;100973.69;4994011;28;20213;-48
2023/10/15 08:36:42;;;;;;;5.38;1.77;;;;;;;9.17;88.08;100965.19;4988098;28;20255;-48
2023/10/15 08:39:07;;;;;;;12.77;1.80;;;;;;;9.30;87.97;100967.50;4994620;28;20548;-47
2023/10/15 08:41:36;;;;;;;10.85;2.58;;;;;;;8.95;87.54;100962.28;4993945;28;20181;-49
2023/10/15 08:44:05;;;;;;;10.48;2.05;;;;;;;9.47;87.40;100968.72;4989048;28;20237;-49
2023/10/15 08:46:31;;;;;;;10.07;1.95;;;;;;;9.78;86.31;100967.72;4993953;28;20187;-49
2023/10/15 08:49:00;;;;;;;11.43;1.92;;;;;;;9.94;85.38;100959.19;4993683;28;20364;-48
2023/10/15 08:51:26;;;;;;;8.32;1.80;;;;;;;10.20;84.89;100960.97;4992328;28;20627;-47
2023/10/15 08:53:53;;;;;;;11.10;2.40;;;;;;;10.21;83.41;100944.88;4988805;28;20276;-46
2023/10/15 08:56:22;;;;;;;5.72;2.00;;;;;;;10.74;82.29;100951.94;4987931;28;20289;-49
2023/10/15 08:58:52;;;;;;;11.75;1.88;;;;;;;10.69;80.99;100936.03;4974783;28;20205;-48
2023/10/15 09:01:19;;;;;;;9.98;2.28;;;;;;;10.92;80.25;100936.97;4993882;28;20600;-48
2023/10/15 09:03:45;;;;;;;10.30;1.50;;;;;;;10.43;79.12;100922.69;4993626;28;20209;-47
2023/10/15 09:06:11;;;;;;;10.52;2.00;;;;;;;10.21;78.85;100939.50;4990379;28;20188;-48
2023/10/15 09:08:41;;;;;;;9.93;2.10;;;;;;;10.11;79.14;100938.06;4984117;28;20169;-48
2023/10/15 09:11:10;;;;;;;11.10;2.45;;;;;;;9.85;79.24;100947.00;4987572;28;20193;-49
2023/10/15 09:13:37;;;;;;;10.65;2.38;;;;;;;9.80;79.33;100952.50;4992323;28;20742;-47
2023/10/15 09:16:07;;;;;;;19.90;4.18;;;;;;;9.72;79.16;100967.91;4992607;28;20254;-45
2023/10/15 09:18:36;;;;;;;11.38;2.10;;;;;;;9.80;79.46;100959.66;4988673;28;20214;-46
2023/10/15 09:21:06;;;;;;;10.70;1.88;;;;;;;9.82;79.57;100966.69;4970218;28;20193;-47
2023/10/15 09:23:36;;;;;;;15.15;2.40;;;;;;;9.83;79.00;100962.22;4992301;28;20232;-46
2023/10/15 09:26:03;;;;;;;9.40;2.10;;;;;;;9.86;78.82;100951.41;4989565;28;20181;-47
2023/10/15 09:28:30;;;;;;;8.35;2.33;;;;;;;9.91;78.04;100952.13;4983862;28;20264;-47
2023/10/15 09:31:22;;;;;;;7.65;2.28;;;;;;;10.03;78.23;100954.38;4993014;28;20635;-47
2023/10/15 09:33:51;;;;;;;9.25;1.90;;;;;;;9.96;77.43;100946.63;4990422;28;20703;-47
2023/10/15 09:36:17;;;;;;;10.55;1.98;;;;;;;9.96;77.47;100954.66;4990765;28;20276;-47
2023/10/15 09:38:42;;;;;;;10.10;2.00;;;;;;;10.02;77.29;100954.47;4989451;28;20388;-48
2023/10/15 09:41:10;;;;;;;11.60;2.03;;;;;;;9.87;75.93;100958.53;4990583;28;20604;-47
2023/10/15 09:43:38;;;;;;;8.63;2.38;;;;;;;9.72;76.23;100941.16;4991573;28;20264;-46
2023/10/15 09:46:05;;;;;;;11.32;2.25;;;;;;;10.04;76.74;100961.50;4986154;28;20186;-47
2023/10/15 09:48:36;;;;;;;9.35;2.20;;;;;;;10.24;76.70;100959.94;4992717;28;20663;-47
2023/10/15 09:51:04;;;;;;;14.50;1.92;;;;;;;10.14;75.92;100953.16;4989182;28;20188;-48
2023/10/15 09:53:33;;;;;;;17.50;2.60;;;;;;;10.07;75.81;100953.34;4990714;28;20213;-47
2023/10/15 09:56:07;;;;;;;13.68;2.30;;;;;;;10.17;75.98;100953.94;4987569;28;20722;-47
2023/10/15 09:58:34;;;;;;;12.65;2.65;;;;;;;10.17;75.66;100958.41;4986305;28;20221;-47
2023/10/15 10:01:31;;;;;;;7.75;2.15;;;;;;;10.11;75.27;100957.69;4992261;28;20181;-48
2023/10/15 10:04:03;;;;;;;10.25;2.00;;;;;;;10.13;75.59;100963.00;4988066;28;20209;-45
2023/10/15 10:06:50;;;;;;;11.80;2.67;;;;;;;10.52;75.38;100965.25;4992501;28;20193;-47
2023/10/15 10:09:36;;;;;;;13.25;2.35;;;;;;;10.86;73.68;100958.63;4992334;28;20177;-46
2023/10/15 10:12:26;;;;;;;15.50;2.40;;;;;;;11.04;71.93;100951.69;4984388;28;20619;-47
2023/10/15 10:15:14;;;;;;;9.63;2.17;;;;;;;10.97;70.36;100921.56;4982765;28;20240;-46
2023/10/15 10:17:40;;;;;;;12.88;2.47;;;;;;;11.22;70.29;100926.88;4984160;28;20240;-48
2023/10/15 10:20:11;;;;;;;15.88;2.33;;;;;;;11.40;70.53;100938.66;4990383;28;20191;-45
2023/10/15 10:22:37;;;;;;;9.32;2.33;;;;;;;10.79;68.79;100903.53;4988244;28;20185;-47
2023/10/15 10:25:03;;;;;;;9.68;2.00;;;;;;;11.03;69.26;100902.56;4990008;28;20213;-45
2023/10/15 10:27:40;;;;;;;12.07;2.83;;;;;;;11.25;69.35;100924.06;4990568;28;20185;-45
2023/10/15 10:30:28;;;;;;;6.65;2.15;;;;;;;11.44;69.20;100920.66;4990399;28;20192;-47
2023/10/15 10:32:57;;;;;;;9.15;2.40;;;;;;;11.57;68.94;100918.31;4992048;28;20228;-47
2023/10/15 10:35:26;;;;;;;9.38;2.28;;;;;;;11.12;67.82;100906.69;4986486;28;20627;-47
2023/10/15 10:38:11;;;;;;;7.18;1.95;;;;;;;10.81;68.44;100921.28;4987958;28;20955;-48
2023/10/15 10:40:56;;;;;;;16.17;1.90;;;;;;;10.48;68.32;100912.69;4990978;28;20528;-47
2023/10/15 10:43:27;;;;;;;12.30;2.15;;;;;;;10.46;68.84;100928.81;4987691;28;20691;-47
2023/10/15 10:46:02;;;;;;;4.43;1.77;;;;;;;11.02;69.25;100942.84;4977769;28;20560;-46
2023/10/15 10:48:29;;;;;;;12.93;2.03;;;;;;;11.01;69.41;100936.59;4989812;28;20189;-45
2023/10/15 10:51:18;;;;;;;10.88;1.90;;;;;;;10.52;69.97;100944.69;4991042;28;20647;-47
2023/10/15 10:53:56;;;;;;;4.15;1.38;;;;;;;10.78;70.21;100955.34;4987533;28;20352;-46
2023/10/15 10:56:22;;;;;;;6.38;1.45;;;;;;;10.61;69.97;100961.34;4980674;28;20263;-45
2023/10/15 10:58:51;;;;;;;6.03;1.80;;;;;;;10.32;70.93;100963.28;4990090;28;20793;-48
2023/10/15 11:01:17;;;;;;;8.35;1.23;;;;;;;10.42;71.04;100972.72;4991169;28;20216;-45
2023/10/15 11:03:47;;;;;;;6.03;0.90;;;;;;;10.61;71.17;100994.38;4989480;28;20208;-47
2023/10/15 11:06:15;;;;;;;3.55;0.90;;;;;;;9.96;72.77;101014.41;4991213;28;20193;-47
2023/10/15 11:08:41;;;;;;;6.25;1.15;;;;;;;9.80;73.83;101022.06;4991365;28;20181;-48
2023/10/15 11:11:09;;;;;;;3.92;0.93;;;;;;;9.66;74.74;101033.22;4956041;28;20268;-47
2023/10/15 11:13:34;;;;;;;5.47;1.30;;;;;;;9.66;75.22;101043.03;4988555;28;20201;-47
2023/10/15 11:16:00;;;;;;;3.90;0.93;;;;;;;9.92;75.13;101044.88;4989576;28;20671;-48
2023/10/15 11:18:26;;;;;;;3.20;1.20;;;;;;;10.10;75.06;101043.41;4987269;28;20209;-47
2023/10/15 11:20:52;;;;;;;4.55;1.02;;;;;;;10.17;74.51;101038.75;4986651;28;20188;-46
2023/10/15 11:23:19;;;;;;;7.43;1.38;;;;;;;10.37;74.58;101033.63;4990850;28;20340;-45
2023/10/15 11:25:45;;;;;;;5.30;0.98;;;;;;;10.45;74.22;101049.41;4977186;28;20204;-48
2023/10/15 11:28:11;;;;;;;4.47;1.00;;;;;;;10.42;73.01;101018.25;4986011;28;20185;-47
2023/10/15 11:30:43;;;;;;;5.35;1.08;;;;;;;10.24;73.45;101011.69;4990383;28;20190;-47
2023/10/15 11:33:09;;;;;;;4.13;0.98;;;;;;;10.35;73.89;101024.75;4991173;28;20197;-48
2023/10/15 11:35:37;;;;;;;3.95;1.30;;;;;;;10.37;74.07;101020.22;4987014;28;20215;-47
2023/10/15 11:38:09;;;;;;;9.30;0.85;;;;;;;10.57;74.24;101030.25;4987169;28;20209;-46
2023/10/15 11:40:45;;;;;;;4.32;0.60;;;;;;;10.64;74.71;101029.09;4985892;28;20276;-46
2023/10/15 11:43:18;;;;;;;2.63;0.98;;;;;;;10.63;74.23;101013.97;4989441;28;20189;-44
2023/10/15 11:45:46;;;;;;;6.55;1.73;;;;;;;10.88;74.31;101032.69;4988691;28;20583;-47
2023/10/15 11:48:13;;;;;;;3.30;1.00;;;;;;;11.03;74.43;101033.94;4982920;28;20196;-45
2023/10/15 11:50:41;;;;;;;5.72;0.93;;;;;;;10.85;74.60;101035.50;4990966;28;20193;-46